Terminal Aerodrome Forecast
Issued by NWS

Home | Current Version | Previous Version | Text Only | Print | Product List | Glossary On
Versions: 1 2 3 4 5 6 7 8 9 10 11 12
000
FTUS43 KLSX 181100
TAFCPS
TAF
KCPS 181139Z 1812/1912 27010KT P6SM SKC
     FM181700 26011G17KT P6SM SCT040
     FM182300 19007KT P6SM SCT120=

USA.gov is the U.S. government's official web portal to all federal, state and local government web resources and services.